Time;durP1;ratioP1;P1;durP2;ratioP2;P2;SDS_P1;SDS_P2;PMS_P1;PMS_P2;Temp;Humidity;BMP_temperature;BMP_pressure;BME280_temperature;BME280_humidity;BME280_pressure;Samples;Min_cycle;Max_cycle;Signal;HPM_P1;HPM_P2
2021/05/05 00:00:10;;;;;;;10.27;4.00;;;;;;;14.96;68.41;99642.41;5060933;28;20100;-69
2021/05/05 00:02:36;;;;;;;11.35;4.82;;;;;;;14.87;68.56;99640.06;5060652;28;20048;-68
2021/05/05 00:05:01;;;;;;;9.40;4.07;;;;;;;14.87;68.50;99640.91;5061674;28;20212;-74
2021/05/05 00:07:26;;;;;;;9.50;4.10;;;;;;;14.80;68.81;99641.84;5061469;28;20041;-74
2021/05/05 00:09:52;;;;;;;10.52;3.53;;;;;;;14.76;68.88;99646.75;5077387;28;20154;-74
2021/05/05 00:12:17;;;;;;;8.57;3.05;;;;;;;14.94;68.69;99648.94;5076685;28;20040;-74
2021/05/05 00:14:43;;;;;;;8.45;3.67;;;;;;;14.86;68.69;99633.09;5060476;28;20349;-69
2021/05/05 00:17:08;;;;;;;8.73;3.80;;;;;;;14.85;68.66;99640.25;5061710;28;20021;-75
2021/05/05 00:19:34;;;;;;;5.97;3.50;;;;;;;14.96;68.10;99638.91;5061395;28;20322;-75
2021/05/05 00:21:59;;;;;;;7.07;3.72;;;;;;;15.13;67.78;99621.63;5061264;28;20108;-74
2021/05/05 00:24:25;;;;;;;5.70;3.60;;;;;;;14.99;68.37;99619.88;5061459;28;20033;-69
2021/05/05 00:26:50;;;;;;;8.55;3.92;;;;;;;14.99;68.30;99617.19;5061136;28;20087;-73
2021/05/05 00:29:16;;;;;;;11.18;4.22;;;;;;;14.94;68.98;99617.78;5061768;28;20092;-68
2021/05/05 00:31:41;;;;;;;10.27;3.58;;;;;;;14.77;69.79;99613.75;5061345;28;20032;-68
2021/05/05 00:34:07;;;;;;;9.82;3.60;;;;;;;14.75;69.22;99604.28;5061187;28;20024;-74
2021/05/05 00:36:33;;;;;;;7.25;3.13;;;;;;;14.84;69.14;99605.81;5060972;28;20048;-69
2021/05/05 00:38:59;;;;;;;9.70;3.25;;;;;;;14.69;69.03;99584.56;5061325;28;20249;-70
2021/05/05 00:41:24;;;;;;;5.95;3.10;;;;;;;14.76;69.49;99587.28;5061264;28;20038;-74
2021/05/05 00:43:50;;;;;;;8.18;3.25;;;;;;;14.87;68.97;99600.91;5061206;28;20043;-68
2021/05/05 00:46:15;;;;;;;7.20;3.22;;;;;;;14.95;68.70;99589.28;5061442;28;20043;-74
2021/05/05 00:48:41;;;;;;;7.60;4.28;;;;;;;14.92;68.66;99605.66;5075943;28;20037;-69
2021/05/05 00:51:06;;;;;;;8.48;3.28;;;;;;;15.15;67.87;99621.41;5061441;28;20067;-74
2021/05/05 00:53:34;;;;;;;7.22;3.00;;;;;;;15.36;67.09;99648.03;5060964;28;20036;-69
2021/05/05 00:56:00;;;;;;;5.30;3.15;;;;;;;15.51;66.64;99661.25;5061255;28;20221;-69
2021/05/05 00:58:26;;;;;;;10.48;3.63;;;;;;;15.61;66.27;99661.78;5060912;28;20222;-69
2021/05/05 01:00:52;;;;;;;11.57;5.35;;;;;;;15.77;65.97;99666.81;5061135;28;20041;-69
2021/05/05 01:03:18;;;;;;;9.88;4.38;;;;;;;15.85;65.70;99650.63;5059766;28;20036;-74
2021/05/05 01:05:44;;;;;;;7.20;3.63;;;;;;;16.03;64.82;99646.59;5060664;28;20108;-69
2021/05/05 01:08:09;;;;;;;5.63;3.45;;;;;;;16.12;64.88;99653.41;5060646;28;20151;-74
2021/05/05 01:10:35;;;;;;;7.70;3.72;;;;;;;16.23;64.33;99659.00;5063463;28;20059;-75
2021/05/05 01:13:00;;;;;;;14.40;3.13;;;;;;;16.28;64.03;99659.22;5061482;28;20083;-74
2021/05/05 01:15:27;;;;;;;8.52;4.15;;;;;;;16.41;63.47;99668.31;5069492;28;20032;-69
2021/05/05 01:17:53;;;;;;;7.78;3.70;;;;;;;16.47;62.97;99662.97;5067412;28;20036;-69
2021/05/05 01:20:21;;;;;;;9.40;3.47;;;;;;;16.54;62.28;99653.13;5067423;28;20065;-74
2021/05/05 01:22:47;;;;;;;11.60;3.22;;;;;;;16.41;62.71;99649.59;5066185;28;20097;-69
2021/05/05 01:25:14;;;;;;;7.47;3.40;;;;;;;16.15;63.36;99621.78;5067801;28;20025;-74
2021/05/05 01:27:41;;;;;;;5.38;3.22;;;;;;;15.85;65.08;99625.78;5065957;28;20029;-68
2021/05/05 01:30:08;;;;;;;7.40;3.85;;;;;;;15.42;66.26;99609.91;5067881;28;20029;-69
2021/05/05 01:32:35;;;;;;;8.80;3.67;;;;;;;15.15;66.96;99616.09;5068034;28;20241;-74
2021/05/05 01:35:02;;;;;;;6.20;4.00;;;;;;;15.00;67.42;99611.66;5067573;28;20088;-74
2021/05/05 01:37:28;;;;;;;9.70;3.80;;;;;;;15.19;66.98;99614.69;5069154;28;20037;-74
2021/05/05 01:39:53;;;;;;;6.95;3.90;;;;;;;15.22;66.79;99612.44;5074928;28;20116;-74
2021/05/05 01:42:19;;;;;;;8.20;3.45;;;;;;;15.29;66.89;99607.16;5082610;28;20021;-74
2021/05/05 01:44:44;;;;;;;6.78;3.28;;;;;;;15.24;67.11;99601.56;5070172;28;20017;-69
2021/05/05 01:47:13;;;;;;;7.25;3.38;;;;;;;15.21;67.03;99593.97;5094984;28;20028;-73
2021/05/05 01:49:43;;;;;;;6.38;3.83;;;;;;;15.15;67.13;99600.09;5067984;28;20061;-74
2021/05/05 01:52:09;;;;;;;7.10;3.63;;;;;;;15.02;67.31;99587.47;5078322;28;20481;-68
2021/05/05 01:54:37;;;;;;;9.18;4.47;;;;;;;15.11;67.27;99596.97;5068134;28;20064;-71
2021/05/05 01:57:35;;;;;;;10.50;4.50;;;;;;;15.29;66.32;99594.63;5077784;28;20033;-70
2021/05/05 02:00:04;;;;;;;8.30;3.90;;;;;;;15.02;67.35;99601.63;5067271;28;20084;-74
2021/05/05 02:02:30;;;;;;;7.50;3.92;;;;;;;14.71;68.54;99609.19;5068900;28;20040;-74
2021/05/05 02:04:55;;;;;;;7.97;4.05;;;;;;;14.76;68.36;99597.94;5067771;28;20049;-69
2021/05/05 02:07:22;;;;;;;10.50;3.85;;;;;;;14.98;67.88;99605.72;5069583;28;20047;-69
2021/05/05 02:09:47;;;;;;;9.32;4.00;;;;;;;15.16;67.51;99605.22;5069274;28;20252;-69
2021/05/05 02:12:13;;;;;;;10.75;4.53;;;;;;;15.37;67.12;99603.50;5067412;28;20031;-74
2021/05/05 02:14:39;;;;;;;7.38;4.28;;;;;;;15.56;66.31;99600.94;5074100;28;20035;-69
2021/05/05 02:17:04;;;;;;;5.85;3.78;;;;;;;15.69;66.47;99588.75;5082925;28;20045;-69
2021/05/05 02:19:30;;;;;;;8.80;4.43;;;;;;;15.78;65.52;99579.53;5074331;28;20065;-74
2021/05/05 02:21:55;;;;;;;10.07;4.22;;;;;;;15.85;65.12;99575.06;5084192;28;20032;-69
2021/05/05 02:24:22;;;;;;;8.35;4.38;;;;;;;15.79;65.28;99579.34;5070015;28;20116;-74
2021/05/05 02:26:47;;;;;;;6.32;4.13;;;;;;;15.72;65.72;99578.50;5063945;28;20029;-74
2021/05/05 02:29:13;;;;;;;9.35;4.60;;;;;;;15.58;66.04;99574.91;5064559;28;20039;-74
2021/05/05 02:31:38;;;;;;;10.15;4.78;;;;;;;15.37;66.61;99563.47;5064654;28;20029;-68
2021/05/05 02:34:04;;;;;;;12.50;5.28;;;;;;;15.14;67.49;99559.25;5064524;28;20024;-74
2021/05/05 02:36:31;;;;;;;8.40;5.00;;;;;;;15.07;67.77;99561.06;5076137;28;20223;-75
2021/05/05 02:38:59;;;;;;;12.98;4.78;;;;;;;15.01;68.12;99560.00;5066723;28;20269;-68
2021/05/05 02:41:24;;;;;;;8.25;5.20;;;;;;;15.01;68.28;99570.66;5066333;28;20028;-74
2021/05/05 02:43:50;;;;;;;13.05;5.40;;;;;;;15.12;67.83;99553.28;5071101;28;20256;-68
2021/05/05 02:46:16;;;;;;;9.07;4.68;;;;;;;15.10;67.31;99552.66;5078227;28;20024;-74
2021/05/05 02:48:42;;;;;;;12.60;6.13;;;;;;;15.08;67.34;99561.88;5071359;28;20043;-69
2021/05/05 02:51:07;;;;;;;12.77;5.95;;;;;;;15.07;67.49;99557.56;5076327;28;20211;-74
2021/05/05 02:53:33;;;;;;;12.52;5.60;;;;;;;15.24;67.14;99570.38;5070770;28;20028;-74
2021/05/05 02:55:58;;;;;;;12.00;5.15;;;;;;;15.12;67.34;99555.97;5073655;28;20047;-69
2021/05/05 02:58:23;;;;;;;13.70;5.57;;;;;;;15.17;67.24;99566.03;5069949;28;20104;-68
2021/05/05 03:00:49;;;;;;;9.15;5.18;;;;;;;15.32;66.80;99572.91;5066554;28;20234;-69
2021/05/05 03:03:14;;;;;;;9.13;4.93;;;;;;;15.41;66.64;99586.06;5061243;28;20037;-74
2021/05/05 03:05:40;;;;;;;9.65;5.47;;;;;;;15.46;65.93;99580.97;5063997;28;20071;-69
2021/05/05 03:08:05;;;;;;;10.27;5.25;;;;;;;15.56;65.70;99589.44;5061813;28;20078;-74
2021/05/05 03:10:31;;;;;;;9.23;5.53;;;;;;;15.56;65.77;99589.44;5060179;28;20029;-75
2021/05/05 03:12:57;;;;;;;13.57;5.10;;;;;;;15.66;65.31;99599.81;5064444;28;20067;-75
2021/05/05 03:15:22;;;;;;;12.32;5.43;;;;;;;15.62;65.15;99602.88;5061481;28;20188;-68
2021/05/05 03:17:47;;;;;;;12.48;5.50;;;;;;;15.64;65.22;99600.84;5062611;28;20214;-69
2021/05/05 03:20:13;;;;;;;9.30;5.75;;;;;;;15.71;64.73;99589.38;5061936;28;20084;-69
2021/05/05 03:22:39;;;;;;;10.23;5.22;;;;;;;15.78;64.55;99587.56;5060995;28;20037;-69
2021/05/05 03:25:07;;;;;;;11.13;4.90;;;;;;;15.81;64.43;99595.16;5063179;28;20029;-75
2021/05/05 03:27:33;;;;;;;8.52;5.15;;;;;;;15.75;64.13;99570.09;5063649;28;20099;-74
2021/05/05 03:29:59;;;;;;;10.98;5.97;;;;;;;15.42;65.39;99569.06;5061118;28;20050;-68
2021/05/05 03:32:25;;;;;;;11.98;5.88;;;;;;;15.17;66.39;99566.03;5060249;28;20029;-72
2021/05/05 03:34:50;;;;;;;8.18;5.75;;;;;;;15.02;66.78;99566.16;5060508;28;20394;-69
2021/05/05 03:37:15;;;;;;;8.85;5.63;;;;;;;14.72;67.29;99538.03;5060266;28;20104;-74
2021/05/05 03:39:41;;;;;;;10.60;6.25;;;;;;;15.01;67.59;99577.84;5061059;28;20095;-75
2021/05/05 03:42:07;;;;;;;12.32;6.25;;;;;;;15.08;67.63;99588.53;5060519;28;20037;-69
2021/05/05 03:44:32;;;;;;;10.63;6.07;;;;;;;15.27;66.99;99588.66;5060007;28;20377;-75
2021/05/05 03:46:58;;;;;;;9.60;5.40;;;;;;;15.47;66.22;99599.47;5060302;28;20055;-69
2021/05/05 03:49:23;;;;;;;9.52;5.93;;;;;;;15.51;66.03;99608.72;5061896;28;20039;-68
2021/05/05 03:51:49;;;;;;;11.65;5.85;;;;;;;15.58;65.95;99622.94;5059428;28;20044;-75
2021/05/05 03:54:16;;;;;;;13.45;5.68;;;;;;;15.64;65.55;99627.53;5057442;28;20235;-74
2021/05/05 03:56:41;;;;;;;11.95;5.57;;;;;;;15.70;65.63;99639.25;5061754;28;20392;-69
2021/05/05 03:59:06;;;;;;;12.75;5.40;;;;;;;15.54;65.50;99628.84;5062258;28;20036;-75
2021/05/05 04:01:32;;;;;;;16.05;5.75;;;;;;;15.68;65.35;99641.31;5060429;28;20024;-74
2021/05/05 04:03:57;;;;;;;7.43;4.78;;;;;;;15.73;65.25;99643.38;5059969;28;20068;-69
2021/05/05 04:06:23;;;;;;;9.68;5.60;;;;;;;15.80;64.92;99653.06;5059657;28;20277;-69
2021/05/05 04:08:48;;;;;;;12.43;5.78;;;;;;;15.95;64.42;99644.91;5062832;28;20210;-69
2021/05/05 04:11:14;;;;;;;12.40;6.05;;;;;;;16.07;63.89;99639.84;5061247;28;20100;-69
2021/05/05 04:13:39;;;;;;;8.23;5.15;;;;;;;16.11;63.88;99639.22;5059306;28;20059;-68
2021/05/05 04:16:05;;;;;;;9.25;5.35;;;;;;;16.08;63.85;99638.81;5061078;28;20048;-69
2021/05/05 04:18:30;;;;;;;12.40;5.15;;;;;;;16.19;63.69;99638.22;5060974;28;20216;-74
2021/05/05 04:21:00;;;;;;;12.52;6.13;;;;;;;16.07;63.90;99637.16;5058351;28;20025;-75
2021/05/05 04:23:26;;;;;;;10.35;5.25;;;;;;;16.02;63.69;99635.09;5060083;28;20056;-75
2021/05/05 04:25:51;;;;;;;11.70;5.38;;;;;;;16.03;63.80;99639.41;5060216;28;20315;-69
2021/05/05 04:28:17;;;;;;;9.85;6.22;;;;;;;16.04;64.05;99643.72;5060136;28;20254;-69
2021/05/05 04:30:42;;;;;;;10.10;5.53;;;;;;;16.07;64.16;99645.19;5061452;28;20080;-68
2021/05/05 04:33:08;;;;;;;16.75;6.07;;;;;;;16.10;63.76;99642.94;5060182;28;20067;-69
2021/05/05 04:35:33;;;;;;;15.50;6.30;;;;;;;16.28;63.46;99661.06;5058292;28;20322;-75
2021/05/05 04:37:58;;;;;;;9.57;6.18;;;;;;;16.39;63.38;99662.34;5059321;28;20124;-69
2021/05/05 04:40:24;;;;;;;11.40;6.07;;;;;;;16.32;62.52;99629.44;5060234;28;20028;-68
2021/05/05 04:42:49;;;;;;;10.98;5.63;;;;;;;16.47;62.42;99649.59;5061413;28;20035;-75
2021/05/05 04:45:15;;;;;;;11.82;5.55;;;;;;;16.44;62.87;99646.50;5059590;28;20349;-70
2021/05/05 04:47:41;;;;;;;13.80;6.22;;;;;;;16.42;63.27;99661.94;5060706;28;20028;-69
2021/05/05 04:50:09;;;;;;;15.02;6.18;;;;;;;16.40;63.12;99663.97;5058913;28;20082;-75
2021/05/05 04:52:34;;;;;;;14.52;6.15;;;;;;;16.39;63.04;99679.19;5056237;28;20055;-69
2021/05/05 04:55:00;;;;;;;17.48;6.22;;;;;;;16.33;63.67;99681.84;5061008;28;20036;-69
2021/05/05 04:57:25;;;;;;;10.50;6.05;;;;;;;16.16;63.89;99676.84;5059372;28;20024;-69
2021/05/05 04:59:51;;;;;;;15.85;6.63;;;;;;;16.03;64.45;99692.00;5056431;28;20033;-74
2021/05/05 05:02:16;;;;;;;17.15;6.10;;;;;;;16.11;64.65;99699.84;5061106;28;20092;-69
2021/05/05 05:04:44;;;;;;;16.85;6.38;;;;;;;16.20;64.26;99704.81;5060664;28;20067;-69
2021/05/05 05:07:09;;;;;;;14.27;6.15;;;;;;;16.19;63.58;99713.84;5059130;28;20033;-69
2021/05/05 05:09:34;;;;;;;12.98;6.05;;;;;;;16.08;63.65;99710.94;5059141;28;20252;-74
2021/05/05 05:12:00;;;;;;;18.75;6.50;;;;;;;16.08;64.26;99725.09;5059818;28;20029;-74
2021/05/05 05:14:26;;;;;;;14.43;6.43;;;;;;;16.13;64.59;99719.16;5059629;28;20027;-69
2021/05/05 05:16:52;;;;;;;14.65;6.40;;;;;;;16.13;64.69;99720.00;5056296;28;20071;-74
2021/05/05 05:19:17;;;;;;;11.23;6.53;;;;;;;16.16;64.61;99716.09;5059759;28;20178;-69
2021/05/05 05:21:43;;;;;;;10.85;6.50;;;;;;;16.34;64.00;99707.53;5059818;28;20053;-75
2021/05/05 05:24:09;;;;;;;18.35;6.28;;;;;;;16.33;64.47;99711.22;5059274;28;20254;-74
2021/05/05 05:26:34;;;;;;;10.00;5.82;;;;;;;16.14;64.79;99705.59;5057690;28;20029;-75
2021/05/05 05:29:01;;;;;;;12.63;6.60;;;;;;;15.84;66.58;99702.38;5057173;28;20033;-69
2021/05/05 05:31:27;;;;;;;10.55;6.85;;;;;;;15.76;67.53;99696.38;5057440;28;20020;-69
2021/05/05 05:33:52;;;;;;;12.75;6.72;;;;;;;15.54;68.08;99688.38;5059690;28;20028;-69
2021/05/05 05:36:18;;;;;;;12.13;7.20;;;;;;;15.13;70.87;99674.94;5057507;28;20025;-68
2021/05/05 05:38:43;;;;;;;16.20;7.78;;;;;;;14.72;72.96;99668.63;5059441;28;20079;-68
2021/05/05 05:41:09;;;;;;;13.88;8.07;;;;;;;14.36;74.29;99670.25;5058940;28;20362;-69
2021/05/05 05:43:34;;;;;;;14.88;8.27;;;;;;;14.25;76.51;99680.59;5055957;28;20130;-74
2021/05/05 05:46:00;;;;;;;18.98;8.93;;;;;;;14.40;76.85;99694.69;5061173;28;20047;-74
2021/05/05 05:48:25;;;;;;;13.80;8.70;;;;;;;14.73;76.57;99703.09;5059301;28;20045;-75
2021/05/05 05:50:51;;;;;;;17.88;7.88;;;;;;;14.94;74.57;99691.59;5060010;28;20037;-74
2021/05/05 05:53:16;;;;;;;12.82;7.55;;;;;;;15.29;73.30;99705.84;5062018;28;20041;-69
2021/05/05 05:55:44;;;;;;;14.25;7.47;;;;;;;15.53;72.66;99702.75;5059721;28;20100;-74
2021/05/05 05:58:10;;;;;;;18.88;7.53;;;;;;;15.84;71.77;99699.72;5058237;28;20300;-74
2021/05/05 06:00:36;;;;;;;13.32;6.72;;;;;;;16.03;70.95;99702.69;5058122;28;20097;-69
2021/05/05 06:03:04;;;;;;;17.05;8.45;;;;;;;16.12;71.06;99702.31;5063418;28;20096;-68
2021/05/05 06:05:30;;;;;;;9.63;6.85;;;;;;;16.28;68.77;99693.97;5061099;28;20033;-69
2021/05/05 06:07:56;;;;;;;13.82;7.32;;;;;;;16.44;68.97;99691.94;5059080;28;20052;-74
2021/05/05 06:10:22;;;;;;;19.48;7.63;;;;;;;16.51;67.92;99674.09;5061746;28;20037;-68
2021/05/05 06:12:47;;;;;;;14.52;7.03;;;;;;;16.75;66.03;99680.78;5061592;28;20063;-75
2021/05/05 06:15:13;;;;;;;11.80;6.70;;;;;;;16.69;65.73;99663.69;5061829;28;20024;-68
2021/05/05 06:17:38;;;;;;;12.23;6.82;;;;;;;16.50;63.87;99645.72;5061655;28;20024;-68
2021/05/05 06:20:06;;;;;;;11.43;6.32;;;;;;;16.55;65.59;99657.44;5060972;28;20448;-75
2021/05/05 06:22:32;;;;;;;10.75;6.22;;;;;;;16.47;65.98;99651.47;5062174;28;20021;-69
2021/05/05 06:24:57;;;;;;;9.38;5.85;;;;;;;16.16;65.98;99660.00;5063979;28;20032;-74
2021/05/05 06:27:23;;;;;;;16.75;6.18;;;;;;;15.99;66.41;99664.88;5064740;28;20044;-68
2021/05/05 06:29:48;;;;;;;11.77;6.28;;;;;;;15.76;68.65;99662.50;5059364;28;20043;-74
2021/05/05 06:32:15;;;;;;;12.95;6.88;;;;;;;15.73;69.67;99664.75;5064514;28;20251;-74
2021/05/05 06:34:40;;;;;;;18.45;8.30;;;;;;;15.85;70.09;99672.00;5064756;28;20047;-75
2021/05/05 06:37:06;;;;;;;14.90;8.45;;;;;;;15.70;71.37;99667.81;5062036;28;20032;-75
2021/05/05 06:39:32;;;;;;;15.57;8.30;;;;;;;15.79;71.06;99667.44;5061053;28;20108;-74
2021/05/05 06:41:58;;;;;;;11.43;7.50;;;;;;;16.16;70.70;99663.50;5061762;28;21381;-75
2021/05/05 06:44:24;;;;;;;12.63;6.90;;;;;;;16.31;68.79;99660.66;5062425;28;20071;-75
2021/05/05 06:46:54;;;;;;;13.60;7.15;;;;;;;16.49;68.67;99665.44;5061240;28;20036;-74
2021/05/05 06:49:20;;;;;;;11.70;6.35;;;;;;;16.42;66.26;99662.75;5060254;28;20063;-68
2021/05/05 06:51:45;;;;;;;9.95;6.50;;;;;;;16.33;67.29;99671.16;5060720;28;20028;-75
2021/05/05 06:54:12;;;;;;;12.23;6.60;;;;;;;16.27;68.38;99664.75;5061295;28;20223;-75
2021/05/05 06:56:37;;;;;;;12.00;6.65;;;;;;;16.84;68.91;99664.31;5061155;28;20098;-69
2021/05/05 06:59:03;;;;;;;11.45;6.70;;;;;;;17.10;65.72;99657.34;5062037;28;20276;-74
2021/05/05 07:01:29;;;;;;;16.80;7.22;;;;;;;16.90;66.75;99655.47;5062688;28;20028;-74
2021/05/05 07:03:54;;;;;;;11.40;6.93;;;;;;;17.00;66.78;99641.69;5059301;28;20029;-74
2021/05/05 07:06:19;;;;;;;12.15;6.30;;;;;;;17.27;65.37;99644.34;5061083;28;20021;-70
2021/05/05 07:08:45;;;;;;;13.20;6.13;;;;;;;17.88;61.46;99655.59;5060962;28;20094;-69
2021/05/05 07:11:10;;;;;;;9.73;5.82;;;;;;;17.83;60.98;99653.56;5059647;28;20025;-74
2021/05/05 07:13:36;;;;;;;11.75;6.22;;;;;;;17.90;61.32;99650.84;5061853;28;20029;-74
2021/05/05 07:16:01;;;;;;;12.18;6.03;;;;;;;17.94;60.96;99645.91;5062752;28;20253;-74
2021/05/05 07:18:27;;;;;;;8.82;6.00;;;;;;;17.59;59.77;99651.50;5063098;28;20064;-68
2021/05/05 07:20:53;;;;;;;9.27;4.93;;;;;;;17.28;59.96;99617.38;5060555;28;20029;-69
2021/05/05 07:23:19;;;;;;;7.10;4.55;;;;;;;17.63;59.89;99649.22;5060068;28;20035;-69
2021/05/05 07:25:44;;;;;;;8.38;5.28;;;;;;;17.60;58.83;99647.78;5061708;28;20021;-68
2021/05/05 07:28:10;;;;;;;9.48;5.40;;;;;;;17.50;60.34;99644.72;5061304;28;20057;-69
2021/05/05 07:30:36;;;;;;;9.80;5.45;;;;;;;17.81;60.66;99633.38;5060211;28;20021;-74
2021/05/05 07:33:03;;;;;;;7.60;5.22;;;;;;;17.65;59.01;99647.16;5060962;28;20056;-74
2021/05/05 07:35:29;;;;;;;11.32;5.00;;;;;;;17.41;59.36;99643.31;5060739;28;20056;-68
2021/05/05 07:48:31;;;;;;;9.75;5.60;;;;;;;17.56;59.90;99636.69;5058991;28;20119;-69
2021/05/05 07:50:57;;;;;;;9.32;5.30;;;;;;;17.90;59.72;99632.09;5059702;28;20035;-69
2021/05/05 07:53:23;;;;;;;8.93;4.90;;;;;;;17.39;58.81;99634.66;5058126;28;20237;-74
2021/05/05 07:55:48;;;;;;;10.85;5.75;;;;;;;17.30;59.57;99634.06;5057448;28;20032;-74
2021/05/05 07:58:14;;;;;;;10.50;5.47;;;;;;;17.65;58.24;99625.75;5057757;28;20029;-75
2021/05/05 08:00:39;;;;;;;7.93;5.43;;;;;;;17.85;56.96;99619.34;5058930;28;20040;-69
2021/05/05 08:03:05;;;;;;;8.00;5.72;;;;;;;17.61;58.75;99628.03;5058208;28;20037;-70
2021/05/05 08:05:31;;;;;;;10.75;6.28;;;;;;;17.42;59.69;99620.88;5059316;28;20090;-74
2021/05/05 08:07:57;;;;;;;7.22;5.78;;;;;;;17.63;59.34;99617.94;5059522;28;20041;-69
2021/05/05 08:10:23;;;;;;;10.48;6.03;;;;;;;18.13;58.54;99620.88;5060500;28;20334;-75
2021/05/05 08:12:48;;;;;;;10.60;5.63;;;;;;;18.48;55.93;99621.28;5058822;28;20082;-74
2021/05/05 08:15:14;;;;;;;8.13;5.72;;;;;;;18.65;55.71;99609.03;5058426;28;20037;-69
2021/05/05 08:17:40;;;;;;;10.43;5.88;;;;;;;18.18;58.10;99613.00;5058580;28;20047;-74
2021/05/05 08:20:06;;;;;;;11.23;6.00;;;;;;;18.12;56.84;99609.34;5058198;28;20195;-69
2021/05/05 08:22:33;;;;;;;7.90;5.32;;;;;;;18.07;56.69;99606.47;5057372;28;20044;-69
2021/05/05 08:24:59;;;;;;;8.93;6.13;;;;;;;17.94;58.70;99608.41;5058492;28;20231;-69
2021/05/05 08:27:24;;;;;;;10.57;6.57;;;;;;;17.98;58.00;99602.41;5057924;28;20060;-74
2021/05/05 08:29:52;;;;;;;8.98;5.80;;;;;;;18.42;57.93;99604.22;5057996;28;20032;-71
2021/05/05 08:32:17;;;;;;;11.73;6.43;;;;;;;18.69;56.46;99598.69;5058453;28;20333;-69
2021/05/05 08:34:43;;;;;;;10.65;6.88;;;;;;;19.00;56.73;99592.47;5058103;28;20036;-73
2021/05/05 08:37:08;;;;;;;9.70;6.25;;;;;;;18.92;55.95;99604.31;5073253;28;20037;-74
2021/05/05 08:39:34;;;;;;;8.70;6.03;;;;;;;19.39;53.97;99591.25;5057290;28;20258;-74
2021/05/05 08:41:59;;;;;;;10.40;5.78;;;;;;;19.67;53.05;99598.84;5058500;28;20075;-73
2021/05/05 08:44:25;;;;;;;8.60;5.32;;;;;;;20.35;52.38;99607.47;5057755;28;20242;-74
2021/05/05 08:46:51;;;;;;;6.95;5.00;;;;;;;20.56;49.24;99602.66;5057409;28;20937;-74
2021/05/05 08:49:17;;;;;;;8.57;4.40;;;;;;;19.98;48.39;99563.75;5056375;28;20024;-74
2021/05/05 08:51:44;;;;;;;11.50;4.97;;;;;;;20.15;49.16;99585.44;5057884;28;20346;-69
2021/05/05 08:54:09;;;;;;;5.82;4.53;;;;;;;20.74;47.87;99581.03;5057243;28;21133;-69
2021/05/05 08:56:36;;;;;;;9.40;4.50;;;;;;;21.55;46.31;99593.72;5058006;28;20032;-75
2021/05/05 08:59:11;;;;;;;6.53;3.83;;;;;;;21.35;46.33;99593.28;5056112;28;20013;-75
2021/05/05 09:01:37;;;;;;;9.02;4.22;;;;;;;21.08;45.07;99573.25;5057493;28;20032;-69
2021/05/05 09:04:04;;;;;;;7.97;4.05;;;;;;;21.19;45.88;99577.81;5057379;28;20052;-69
2021/05/05 09:06:46;;;;;;;11.38;4.30;;;;;;;20.80;46.83;99563.16;5058116;28;20017;-75
2021/05/05 09:09:29;;;;;;;9.30;4.38;;;;;;;20.53;48.67;99574.34;5055817;28;20033;-69
2021/05/05 09:11:55;;;;;;;7.88;4.15;;;;;;;20.67;47.90;99562.31;5057188;28;20096;-75
2021/05/05 09:14:20;;;;;;;7.93;4.50;;;;;;;21.14;47.88;99548.91;5057593;28;20032;-68
2021/05/05 09:16:45;;;;;;;8.65;4.65;;;;;;;20.96;47.26;99549.84;5057126;28;20062;-74
2021/05/05 09:19:11;;;;;;;10.73;3.88;;;;;;;20.87;48.45;99561.19;5058310;28;20082;-69
2021/05/05 09:21:43;;;;;;;8.57;4.85;;;;;;;20.61;48.00;99563.25;5057239;28;20054;-75
2021/05/05 09:24:17;;;;;;;10.73;4.90;;;;;;;20.78;47.58;99552.63;5060358;28;20036;-74
2021/05/05 09:26:42;;;;;;;;;;;;;;;20.86;48.30;99549.63;5060159;28;20041;-74
2021/05/05 09:29:08;;;;;;;10.95;4.70;;;;;;;20.95;48.87;99537.44;5056458;28;19920;-70
2021/05/05 09:31:36;;;;;;;16.88;5.00;;;;;;;21.03;48.74;99515.56;5058832;28;20036;-69
2021/05/05 09:34:03;;;;;;;10.60;5.07;;;;;;;21.29;47.30;99513.44;5056597;28;20310;-74
2021/05/05 09:36:30;;;;;;;9.70;4.90;;;;;;;21.38;48.41;99514.72;5063343;28;20025;-75
2021/05/05 09:38:56;;;;;;;8.40;4.85;;;;;;;21.15;48.33;99510.16;5062616;28;20052;-74
2021/05/05 09:41:27;;;;;;;10.27;4.70;;;;;;;21.26;49.03;99495.06;5061826;28;20344;-71
2021/05/05 09:44:07;;;;;;;11.70;5.03;;;;;;;21.65;48.09;99499.63;5061040;28;20056;-71
2021/05/05 09:46:50;;;;;;;13.32;4.63;;;;;;;21.79;48.18;99493.97;5059918;28;20242;-74
2021/05/05 09:49:21;;;;;;;9.77;5.20;;;;;;;21.78;47.30;99500.41;5060273;28;20407;-69
2021/05/05 09:51:56;;;;;;;10.52;5.28;;;;;;;21.31;48.66;99497.88;5061824;28;20199;-74
2021/05/05 09:54:35;;;;;;;11.60;5.45;;;;;;;21.31;49.86;99490.59;5079151;28;20273;-74
2021/05/05 09:57:24;;;;;;;10.75;5.50;;;;;;;21.21;50.78;99476.09;5061665;28;20074;-74
2021/05/05 10:00:00;;;;;;;12.90;5.20;;;;;;;21.32;48.58;99473.38;5061084;28;20067;-70
2021/05/05 10:02:28;;;;;;;10.43;5.10;;;;;;;21.30;49.52;99480.06;5060857;28;20037;-67
2021/05/05 10:04:58;;;;;;;11.90;5.90;;;;;;;21.41;50.36;99478.41;5062053;28;20553;-69
2021/05/05 10:07:23;;;;;;;9.60;5.38;;;;;;;21.19;50.32;99481.72;5078584;28;20092;-74
2021/05/05 10:09:49;;;;;;;15.70;6.00;;;;;;;21.34;48.50;99476.66;5061970;28;20081;-66
2021/05/05 10:12:19;;;;;;;10.80;5.10;;;;;;;21.45;48.26;99476.88;5060089;28;20056;-66
2021/05/05 10:14:45;;;;;;;8.80;5.20;;;;;;;21.62;49.64;99477.75;5060204;28;20092;-74
2021/05/05 10:17:12;;;;;;;11.93;5.32;;;;;;;21.75;47.91;99465.84;5057006;28;20025;-68
2021/05/05 10:19:40;;;;;;;8.55;4.97;;;;;;;21.85;47.39;99469.59;5058814;28;20017;-74
2021/05/05 10:22:06;;;;;;;11.80;5.50;;;;;;;21.62;47.62;99467.78;5062055;28;20151;-74
2021/05/05 10:24:37;;;;;;;8.65;4.75;;;;;;;21.69;48.75;99462.25;5060506;28;20047;-74
2021/05/05 10:27:02;;;;;;;10.95;4.78;;;;;;;21.40;48.67;99452.53;5063967;28;20368;-69
2021/05/05 10:29:31;;;;;;;9.57;4.90;;;;;;;21.22;49.01;99443.56;5066993;28;20033;-74
2021/05/05 10:32:04;;;;;;;13.35;4.78;;;;;;;21.22;50.18;99440.03;5083883;28;20372;-68
2021/05/05 10:34:31;;;;;;;9.38;4.68;;;;;;;21.28;48.66;99441.78;5062824;28;20059;-69
2021/05/05 10:37:00;;;;;;;8.68;4.60;;;;;;;21.39;48.80;99448.19;5079524;28;20044;-74
2021/05/05 10:39:37;;;;;;;8.65;4.55;;;;;;;21.65;48.74;99424.19;5063271;28;20335;-69
2021/05/05 10:42:11;;;;;;;11.02;4.57;;;;;;;22.05;47.61;99433.28;5064051;28;20035;-68
2021/05/05 10:44:46;;;;;;;13.50;4.18;;;;;;;22.37;46.20;99426.25;5072789;28;21234;-69
2021/05/05 10:47:20;;;;;;;11.45;4.35;;;;;;;22.62;44.96;99426.63;5059593;28;20045;-69
2021/05/05 10:50:06;;;;;;;10.27;3.85;;;;;;;22.72;45.65;99428.66;5058928;28;20136;-69
2021/05/05 10:52:38;;;;;;;7.05;4.47;;;;;;;22.45;45.26;99416.94;5059086;28;20099;-69
2021/05/05 10:55:08;;;;;;;12.50;4.13;;;;;;;22.49;45.67;99413.50;5059222;28;20044;-75
2021/05/05 10:57:36;;;;;;;12.20;4.60;;;;;;;22.05;46.61;99404.44;5057493;28;20092;-75
2021/05/05 11:00:06;;;;;;;11.15;4.55;;;;;;;22.11;48.57;99406.16;5059963;28;20103;-75
2021/05/05 11:02:40;;;;;;;9.25;3.92;;;;;;;22.02;46.99;99404.91;5058834;28;20032;-74
2021/05/05 11:05:25;;;;;;;8.10;4.28;;;;;;;21.79;48.79;99396.94;5059706;28;20041;-75
2021/05/05 11:07:53;;;;;;;;;;;;;;;21.86;47.97;99390.34;5060688;28;20106;-74
2021/05/05 11:10:30;;;;;;;6.53;4.40;;;;;;;21.61;49.78;99393.41;5059773;28;19912;-75
2021/05/05 11:12:56;;;;;;;10.43;4.75;;;;;;;21.59;50.36;99392.81;5075255;28;20323;-74
2021/05/05 11:15:42;;;;;;;11.77;4.40;;;;;;;21.66;48.03;99387.28;5059448;28;20041;-68
2021/05/05 11:18:38;;;;;;;12.07;5.00;;;;;;;21.71;47.27;99403.53;5059104;28;20032;-74
2021/05/05 11:21:05;;;;;;;5.75;4.47;;;;;;;21.62;48.97;99388.84;5058736;28;20029;-70
2021/05/05 11:23:38;;;;;;;7.43;4.07;;;;;;;21.85;48.72;99387.91;5060690;28;20337;-75
2021/05/05 11:26:25;;;;;;;10.50;4.88;;;;;;;21.89;48.41;99387.16;5059567;28;20055;-69
2021/05/05 11:28:54;;;;;;;14.63;4.95;;;;;;;21.91;49.13;99395.03;5059596;28;20099;-74
2021/05/05 11:31:19;;;;;;;11.15;4.72;;;;;;;22.03;49.14;99393.09;5060152;28;20025;-74
2021/05/05 11:34:00;;;;;;;9.60;4.32;;;;;;;22.21;48.04;99367.75;5059723;28;20105;-68
2021/05/05 11:36:26;;;;;;;14.10;5.22;;;;;;;22.40;47.97;99368.28;5059365;28;20082;-75
2021/05/05 11:38:51;;;;;;;11.10;4.55;;;;;;;22.43;47.76;99362.41;5059155;28;20110;-75